»·PEaware :: UAL241 KPDX-KSEA

UAL241 :: KPDX-KSEA

FLIGHT INFORMATION

Flight Status: Arrived
Operator:
United Airlines
More flights by this operator :: More flights under this callsign
Pilot: Ryan H. (12491)
Aircraft: BOEING 737-800
(B738)
More flights by this aircraft type
Origin: KPDX Portland Intl
United States
Destination: KSEA Seattle-Tacoma Intl
United States
More flights between these airports :: More routes between these airports
Route: +COUGA KRIEG HAWKZ6
File this flight plan on PilotEdge
Remarks:
Altitude:
(Current/Filed)
10,000ft
Speed:
(Current/Filed)
450kts
Departed: 19-Dec-17 07:33 PM
Arrived: 19-Dec-17 08:05 PM
Distance/Time
Traveled:
112nm/0:32
Distance/Time
To Go:
Arrived

Flight Plot

Page will automatically refresh every two minutes.

Flight plan parsing failed; only flown route is shown


Map Options




Map Legend


Flown Route
Filed Route
Departure Airport
Arrival Airport
Navaid (VOR, NDB)
Fix

Horizontal Profiles

Position Reports

Time Latitude Longitude Heading Altitude Ground
Speed
19-Dec-17 19:19 45.589295 -122.597982 30 27ft 0kts
19-Dec-17 19:20 45.589295 -122.597982 30 27ft 0kts
19-Dec-17 19:21 45.589295 -122.597982 30 27ft 0kts
19-Dec-17 19:22 45.589295 -122.597982 30 27ft 0kts
19-Dec-17 19:23 45.589295 -122.597982 30 27ft 0kts
19-Dec-17 19:24 45.589295 -122.597982 30 27ft 0kts
19-Dec-17 19:25 45.589295 -122.597982 30 27ft 0kts
19-Dec-17 19:26 45.589295 -122.597982 30 27ft 0kts
19-Dec-17 19:27 45.589295 -122.597982 30 27ft 0kts
19-Dec-17 19:28 45.589295 -122.597982 30 27ft 0kts
19-Dec-17 19:29 45.589295 -122.597982 30 27ft 0kts
19-Dec-17 19:30 45.589295 -122.597982 30 27ft 0kts
19-Dec-17 19:31 45.589295 -122.597982 30 27ft 0kts
19-Dec-17 19:32 45.589295 -122.597982 30 27ft 0kts
19-Dec-17 19:33 45.588861 -122.598557 27 27ft 9kts
19-Dec-17 19:34 45.588620 -122.599054 124 27ft 8kts
19-Dec-17 19:35 45.585215 -122.592090 134 27ft 26kts
19-Dec-17 19:36 45.581671 -122.583426 137 27ft 8kts
19-Dec-17 19:37 45.581308 -122.583448 220 27ft 0kts
19-Dec-17 19:38 45.581308 -122.583448 220 27ft 0kts
19-Dec-17 19:39 45.583253 -122.590915 299 27ft 106kts
19-Dec-17 19:40 45.605802 -122.648183 299 2858ft 183kts
19-Dec-17 19:41 45.643619 -122.703759 347 6552ft 236kts
19-Dec-17 19:42 45.715944 -122.705250 356 10247ft 276kts
19-Dec-17 19:43 45.801711 -122.698518 355 12799ft 339kts
19-Dec-17 19:44 45.903003 -122.691001 355 15220ft 392kts
19-Dec-17 19:45 46.022124 -122.682319 355 17411ft 436kts
19-Dec-17 19:46 46.144072 -122.687348 343 19990ft 442kts
19-Dec-17 19:47 46.268154 -122.712440 341 21772ft 465kts
19-Dec-17 19:48 46.401103 -122.726989 351 21833ft 488kts
19-Dec-17 19:49 46.535940 -122.730195 349 21502ft 477kts
19-Dec-17 19:50 46.658954 -122.734456 353 18418ft 404kts
19-Dec-17 19:51 46.759071 -122.738123 353 17780ft 341kts
19-Dec-17 19:52 46.841287 -122.672611 35 16615ft 352kts
19-Dec-17 19:53 46.917890 -122.584787 33 15149ft 332kts
19-Dec-17 19:54 46.997428 -122.535816 11 14090ft 306kts
19-Dec-17 19:55 47.078272 -122.500975 9 12783ft 300kts
19-Dec-17 19:56 47.149775 -122.487184 359 11662ft 292kts
19-Dec-17 19:57 47.229972 -122.473939 1 10404ft 288kts
19-Dec-17 19:58 47.307369 -122.462339 2 9187ft 267kts
19-Dec-17 19:59 47.369622 -122.454620 356 8207ft 248kts
19-Dec-17 20:00 47.439061 -122.455513 356 7122ft 246kts
19-Dec-17 20:01 47.506633 -122.455464 356 6059ft 235kts
19-Dec-17 20:02 47.571519 -122.454920 357 4420ft 231kts
19-Dec-17 20:03 47.634794 -122.456592 0 3991ft 225kts
19-Dec-17 20:04 47.660145 -122.399714 96 4010ft 210kts
19-Dec-17 20:05 47.647837 -122.325705 146 3886ft 158kts
19-Dec-17 20:06 47.609601 -122.307091 177 3252ft 139kts
19-Dec-17 20:07 47.570862 -122.306785 180 2514ft 136kts
19-Dec-17 20:08 47.532942 -122.307114 179 1799ft 136kts
19-Dec-17 20:09 47.496052 -122.307440 180 1101ft 129kts
19-Dec-17 20:10 47.460116 -122.307752 181 444ft 121kts
19-Dec-17 20:11 47.445794 -122.306613 76 442ft 0kts
19-Dec-17 20:12 47.447658 -122.305315 89 442ft 14kts
19-Dec-17 20:13 47.447191 -122.303075 147 442ft 5kts
19-Dec-17 20:14 47.446478 -122.301830 187 442ft 4kts
19-Dec-17 20:15 47.446293 -122.303087 268 442ft 3kts
19-Dec-17 20:16 47.446292 -122.303231 268 442ft 0kts

Navigation Log

Ident Type
Flight plan parsing failed, navigation log unavailable